sensor_id;sensor_type;location;lat;lon;timestamp;P1;durP1;ratioP1;P2;durP2;ratioP2
8737;SDS011;4405;49.272;8.590;2023-02-28T00:01:45;3.00;;;2.70;;
8737;SDS011;4405;49.272;8.590;2023-02-28T00:04:12;2.30;;;2.20;;
8737;SDS011;4405;49.272;8.590;2023-02-28T00:06:39;2.30;;;2.10;;
8737;SDS011;4405;49.272;8.590;2023-02-28T00:09:06;2.40;;;2.30;;
8737;SDS011;4405;49.272;8.590;2023-02-28T00:11:33;3.13;;;2.47;;
8737;SDS011;4405;49.272;8.590;2023-02-28T00:13:59;3.33;;;2.43;;
8737;SDS011;4405;49.272;8.590;2023-02-28T00:16:26;2.60;;;2.40;;
8737;SDS011;4405;49.272;8.590;2023-02-28T00:18:52;2.23;;;2.13;;
8737;SDS011;4405;49.272;8.590;2023-02-28T00:21:20;2.27;;;2.10;;
8737;SDS011;4405;49.272;8.590;2023-02-28T00:23:46;2.07;;;2.00;;
8737;SDS011;4405;49.272;8.590;2023-02-28T00:26:12;2.20;;;2.10;;
8737;SDS011;4405;49.272;8.590;2023-02-28T00:28:39;2.40;;;2.20;;
8737;SDS011;4405;49.272;8.590;2023-02-28T00:31:05;2.07;;;1.97;;
8737;SDS011;4405;49.272;8.590;2023-02-28T00:33:32;2.40;;;2.30;;
8737;SDS011;4405;49.272;8.590;2023-02-28T00:36:02;2.90;;;2.17;;
8737;SDS011;4405;49.272;8.590;2023-02-28T00:38:31;2.60;;;2.20;;
8737;SDS011;4405;49.272;8.590;2023-02-28T00:40:57;2.40;;;2.20;;
8737;SDS011;4405;49.272;8.590;2023-02-28T00:43:29;2.33;;;2.13;;
8737;SDS011;4405;49.272;8.590;2023-02-28T00:45:55;2.33;;;2.23;;
8737;SDS011;4405;49.272;8.590;2023-02-28T00:48:22;2.20;;;2.10;;
8737;SDS011;4405;49.272;8.590;2023-02-28T00:50:48;5.90;;;4.20;;
8737;SDS011;4405;49.272;8.590;2023-02-28T00:53:15;3.13;;;2.80;;
8737;SDS011;4405;49.272;8.590;2023-02-28T00:55:42;2.27;;;2.00;;
8737;SDS011;4405;49.272;8.590;2023-02-28T00:58:09;2.47;;;2.27;;
8737;SDS011;4405;49.272;8.590;2023-02-28T01:00:35;2.27;;;2.07;;
8737;SDS011;4405;49.272;8.590;2023-02-28T01:03:01;1.87;;;1.73;;
8737;SDS011;4405;49.272;8.590;2023-02-28T01:05:29;2.20;;;2.00;;
8737;SDS011;4405;49.272;8.590;2023-02-28T01:07:55;2.60;;;2.20;;
8737;SDS011;4405;49.272;8.590;2023-02-28T01:10:21;2.37;;;2.20;;
8737;SDS011;4405;49.272;8.590;2023-02-28T01:12:49;2.63;;;2.30;;
8737;SDS011;4405;49.272;8.590;2023-02-28T01:15:16;2.10;;;2.00;;
8737;SDS011;4405;49.272;8.590;2023-02-28T01:17:42;2.33;;;2.13;;
8737;SDS011;4405;49.272;8.590;2023-02-28T01:20:09;2.60;;;2.30;;
8737;SDS011;4405;49.272;8.590;2023-02-28T01:22:35;2.27;;;2.17;;
8737;SDS011;4405;49.272;8.590;2023-02-28T01:25:02;2.63;;;2.30;;
8737;SDS011;4405;49.272;8.590;2023-02-28T01:27:28;2.93;;;2.50;;
8737;SDS011;4405;49.272;8.590;2023-02-28T01:29:56;2.40;;;2.20;;
8737;SDS011;4405;49.272;8.590;2023-02-28T01:32:22;2.50;;;2.30;;
8737;SDS011;4405;49.272;8.590;2023-02-28T01:34:48;3.37;;;2.50;;
8737;SDS011;4405;49.272;8.590;2023-02-28T01:37:15;2.40;;;2.20;;
8737;SDS011;4405;49.272;8.590;2023-02-28T01:39:41;2.63;;;2.43;;
8737;SDS011;4405;49.272;8.590;2023-02-28T01:42:08;2.90;;;2.57;;
8737;SDS011;4405;49.272;8.590;2023-02-28T01:47:21;2.50;;;2.30;;
8737;SDS011;4405;49.272;8.590;2023-02-28T01:49:48;2.50;;;2.30;;
8737;SDS011;4405;49.272;8.590;2023-02-28T01:52:16;2.60;;;2.40;;
8737;SDS011;4405;49.272;8.590;2023-02-28T01:54:44;3.40;;;2.80;;
8737;SDS011;4405;49.272;8.590;2023-02-28T01:57:13;2.57;;;2.37;;
8737;SDS011;4405;49.272;8.590;2023-02-28T01:59:40;2.63;;;2.43;;
8737;SDS011;4405;49.272;8.590;2023-02-28T02:02:11;3.03;;;2.40;;
8737;SDS011;4405;49.272;8.590;2023-02-28T02:04:39;2.60;;;2.40;;
8737;SDS011;4405;49.272;8.590;2023-02-28T02:07:06;3.00;;;2.80;;
8737;SDS011;4405;49.272;8.590;2023-02-28T02:09:33;2.90;;;2.60;;
8737;SDS011;4405;49.272;8.590;2023-02-28T02:12:00;3.00;;;2.60;;
8737;SDS011;4405;49.272;8.590;2023-02-28T02:14:40;2.50;;;2.30;;
8737;SDS011;4405;49.272;8.590;2023-02-28T02:17:18;3.27;;;2.73;;
8737;SDS011;4405;49.272;8.590;2023-02-28T02:22:51;3.13;;;2.80;;
8737;SDS011;4405;49.272;8.590;2023-02-28T02:25:25;2.70;;;2.50;;
8737;SDS011;4405;49.272;8.590;2023-02-28T02:28:10;2.77;;;2.57;;
8737;SDS011;4405;49.272;8.590;2023-02-28T02:30:46;2.90;;;2.60;;
8737;SDS011;4405;49.272;8.590;2023-02-28T02:33:25;5.77;;;2.90;;
8737;SDS011;4405;49.272;8.590;2023-02-28T02:35:56;4.70;;;3.10;;
8737;SDS011;4405;49.272;8.590;2023-02-28T02:38:28;2.90;;;2.70;;
8737;SDS011;4405;49.272;8.590;2023-02-28T02:40:57;3.97;;;2.87;;
8737;SDS011;4405;49.272;8.590;2023-02-28T02:43:25;3.07;;;2.77;;
8737;SDS011;4405;49.272;8.590;2023-02-28T02:45:55;2.87;;;2.67;;
8737;SDS011;4405;49.272;8.590;2023-02-28T02:48:24;3.33;;;3.00;;
8737;SDS011;4405;49.272;8.590;2023-02-28T02:50:52;4.60;;;3.00;;
8737;SDS011;4405;49.272;8.590;2023-02-28T02:53:21;3.83;;;3.43;;
8737;SDS011;4405;49.272;8.590;2023-02-28T02:55:48;4.67;;;3.20;;
8737;SDS011;4405;49.272;8.590;2023-02-28T02:58:18;3.03;;;2.80;;
8737;SDS011;4405;49.272;8.590;2023-02-28T03:00:54;3.80;;;3.40;;
8737;SDS011;4405;49.272;8.590;2023-02-28T03:03:21;3.20;;;2.90;;
8737;SDS011;4405;49.272;8.590;2023-02-28T03:05:54;3.40;;;3.13;;
8737;SDS011;4405;49.272;8.590;2023-02-28T03:08:22;3.27;;;2.93;;
8737;SDS011;4405;49.272;8.590;2023-02-28T03:10:49;3.20;;;2.97;;
8737;SDS011;4405;49.272;8.590;2023-02-28T03:13:20;2.97;;;2.70;;
8737;SDS011;4405;49.272;8.590;2023-02-28T03:15:54;2.83;;;2.63;;
8737;SDS011;4405;49.272;8.590;2023-02-28T03:18:24;3.73;;;3.20;;
8737;SDS011;4405;49.272;8.590;2023-02-28T03:20:56;3.23;;;2.93;;
8737;SDS011;4405;49.272;8.590;2023-02-28T03:23:29;3.30;;;3.10;;
8737;SDS011;4405;49.272;8.590;2023-02-28T03:25:59;3.20;;;3.00;;
8737;SDS011;4405;49.272;8.590;2023-02-28T03:28:30;3.20;;;3.00;;
8737;SDS011;4405;49.272;8.590;2023-02-28T03:30:59;3.13;;;2.93;;
8737;SDS011;4405;49.272;8.590;2023-02-28T03:33:27;3.50;;;3.20;;
8737;SDS011;4405;49.272;8.590;2023-02-28T03:35:54;3.13;;;2.83;;
8737;SDS011;4405;49.272;8.590;2023-02-28T03:38:23;4.50;;;2.83;;
8737;SDS011;4405;49.272;8.590;2023-02-28T03:40:54;4.83;;;2.80;;
8737;SDS011;4405;49.272;8.590;2023-02-28T03:43:22;3.00;;;2.80;;
8737;SDS011;4405;49.272;8.590;2023-02-28T03:45:50;5.20;;;3.23;;
8737;SDS011;4405;49.272;8.590;2023-02-28T03:48:18;3.60;;;3.30;;
8737;SDS011;4405;49.272;8.590;2023-02-28T03:50:47;3.30;;;3.00;;
8737;SDS011;4405;49.272;8.590;2023-02-28T03:53:15;3.07;;;2.87;;
8737;SDS011;4405;49.272;8.590;2023-02-28T03:55:45;3.20;;;3.00;;
8737;SDS011;4405;49.272;8.590;2023-02-28T03:58:17;3.63;;;3.30;;
8737;SDS011;4405;49.272;8.590;2023-02-28T04:00:46;4.00;;;3.40;;
8737;SDS011;4405;49.272;8.590;2023-02-28T04:03:14;3.10;;;2.80;;
8737;SDS011;4405;49.272;8.590;2023-02-28T04:05:46;5.13;;;3.37;;
8737;SDS011;4405;49.272;8.590;2023-02-28T04:08:12;4.73;;;3.37;;
8737;SDS011;4405;49.272;8.590;2023-02-28T04:10:39;3.53;;;3.27;;
8737;SDS011;4405;49.272;8.590;2023-02-28T04:13:05;3.70;;;3.40;;
8737;SDS011;4405;49.272;8.590;2023-02-28T04:15:33;4.10;;;3.70;;
8737;SDS011;4405;49.272;8.590;2023-02-28T04:17:59;3.37;;;3.07;;
8737;SDS011;4405;49.272;8.590;2023-02-28T04:20:25;3.67;;;3.30;;
8737;SDS011;4405;49.272;8.590;2023-02-28T04:22:52;3.93;;;3.43;;
8737;SDS011;4405;49.272;8.590;2023-02-28T04:25:18;4.63;;;3.53;;
8737;SDS011;4405;49.272;8.590;2023-02-28T04:27:44;3.47;;;3.27;;
8737;SDS011;4405;49.272;8.590;2023-02-28T04:30:11;5.00;;;3.20;;
8737;SDS011;4405;49.272;8.590;2023-02-28T04:32:38;3.57;;;3.27;;
8737;SDS011;4405;49.272;8.590;2023-02-28T04:35:05;4.53;;;3.40;;
8737;SDS011;4405;49.272;8.590;2023-02-28T04:37:32;3.60;;;3.30;;
8737;SDS011;4405;49.272;8.590;2023-02-28T04:39:59;4.03;;;3.73;;
8737;SDS011;4405;49.272;8.590;2023-02-28T04:42:26;3.67;;;3.33;;
8737;SDS011;4405;49.272;8.590;2023-02-28T04:44:52;3.87;;;3.50;;
8737;SDS011;4405;49.272;8.590;2023-02-28T04:47:18;3.47;;;3.20;;
8737;SDS011;4405;49.272;8.590;2023-02-28T04:49:46;4.03;;;3.60;;
8737;SDS011;4405;49.272;8.590;2023-02-28T04:52:13;3.73;;;3.43;;
8737;SDS011;4405;49.272;8.590;2023-02-28T04:54:39;3.20;;;3.00;;
8737;SDS011;4405;49.272;8.590;2023-02-28T04:57:06;3.93;;;3.50;;
8737;SDS011;4405;49.272;8.590;2023-02-28T04:59:32;3.57;;;3.10;;
8737;SDS011;4405;49.272;8.590;2023-02-28T05:01:58;3.30;;;3.00;;
8737;SDS011;4405;49.272;8.590;2023-02-28T05:04:25;3.97;;;3.57;;
8737;SDS011;4405;49.272;8.590;2023-02-28T05:06:53;5.37;;;3.40;;
8737;SDS011;4405;49.272;8.590;2023-02-28T05:09:20;5.23;;;3.70;;
8737;SDS011;4405;49.272;8.590;2023-02-28T05:11:46;4.07;;;3.70;;
8737;SDS011;4405;49.272;8.590;2023-02-28T05:14:13;4.37;;;3.60;;
8737;SDS011;4405;49.272;8.590;2023-02-28T05:16:39;5.30;;;3.83;;
8737;SDS011;4405;49.272;8.590;2023-02-28T05:19:06;4.13;;;3.70;;
8737;SDS011;4405;49.272;8.590;2023-02-28T05:21:33;3.83;;;3.47;;
8737;SDS011;4405;49.272;8.590;2023-02-28T05:24:02;4.63;;;4.23;;
8737;SDS011;4405;49.272;8.590;2023-02-28T05:26:29;4.63;;;3.80;;
8737;SDS011;4405;49.272;8.590;2023-02-28T05:28:55;4.27;;;3.83;;
8737;SDS011;4405;49.272;8.590;2023-02-28T05:31:22;3.90;;;3.60;;
8737;SDS011;4405;49.272;8.590;2023-02-28T05:33:48;4.10;;;3.60;;
8737;SDS011;4405;49.272;8.590;2023-02-28T05:36:14;3.67;;;3.37;;
8737;SDS011;4405;49.272;8.590;2023-02-28T05:38:41;4.90;;;4.03;;
8737;SDS011;4405;49.272;8.590;2023-02-28T05:41:08;3.80;;;3.50;;
8737;SDS011;4405;49.272;8.590;2023-02-28T05:43:35;4.77;;;3.90;;
8737;SDS011;4405;49.272;8.590;2023-02-28T05:46:03;3.80;;;3.50;;
8737;SDS011;4405;49.272;8.590;2023-02-28T05:48:29;4.90;;;4.27;;
8737;SDS011;4405;49.272;8.590;2023-02-28T05:50:56;5.60;;;4.30;;
8737;SDS011;4405;49.272;8.590;2023-02-28T05:53:23;5.23;;;4.50;;
8737;SDS011;4405;49.272;8.590;2023-02-28T05:55:49;4.27;;;3.93;;
8737;SDS011;4405;49.272;8.590;2023-02-28T05:58:17;4.67;;;4.27;;
8737;SDS011;4405;49.272;8.590;2023-02-28T06:00:43;6.23;;;4.00;;
8737;SDS011;4405;49.272;8.590;2023-02-28T06:03:10;4.90;;;4.50;;
8737;SDS011;4405;49.272;8.590;2023-02-28T06:05:36;4.63;;;4.13;;
8737;SDS011;4405;49.272;8.590;2023-02-28T06:08:03;3.97;;;3.67;;
8737;SDS011;4405;49.272;8.590;2023-02-28T06:10:31;4.00;;;3.70;;
8737;SDS011;4405;49.272;8.590;2023-02-28T06:12:59;6.27;;;4.10;;
8737;SDS011;4405;49.272;8.590;2023-02-28T06:15:27;6.37;;;4.10;;
8737;SDS011;4405;49.272;8.590;2023-02-28T06:17:53;5.03;;;4.53;;
8737;SDS011;4405;49.272;8.590;2023-02-28T06:20:21;4.83;;;4.27;;
8737;SDS011;4405;49.272;8.590;2023-02-28T06:22:47;4.83;;;4.37;;
8737;SDS011;4405;49.272;8.590;2023-02-28T06:25:15;5.17;;;4.57;;
8737;SDS011;4405;49.272;8.590;2023-02-28T06:27:41;5.27;;;4.50;;
8737;SDS011;4405;49.272;8.590;2023-02-28T06:30:08;7.00;;;4.27;;
8737;SDS011;4405;49.272;8.590;2023-02-28T06:32:36;4.90;;;4.40;;
8737;SDS011;4405;49.272;8.590;2023-02-28T06:35:03;8.43;;;4.60;;
8737;SDS011;4405;49.272;8.590;2023-02-28T06:37:30;7.07;;;4.50;;
8737;SDS011;4405;49.272;8.590;2023-02-28T06:39:56;5.60;;;4.20;;
8737;SDS011;4405;49.272;8.590;2023-02-28T06:42:22;4.97;;;4.40;;
8737;SDS011;4405;49.272;8.590;2023-02-28T06:44:49;5.53;;;4.57;;
8737;SDS011;4405;49.272;8.590;2023-02-28T06:47:16;6.03;;;4.63;;
8737;SDS011;4405;49.272;8.590;2023-02-28T06:49:43;5.50;;;4.43;;
8737;SDS011;4405;49.272;8.590;2023-02-28T06:52:10;4.83;;;4.30;;
8737;SDS011;4405;49.272;8.590;2023-02-28T06:54:37;4.80;;;4.30;;
8737;SDS011;4405;49.272;8.590;2023-02-28T06:57:03;4.93;;;4.30;;
8737;SDS011;4405;49.272;8.590;2023-02-28T06:59:29;4.20;;;3.80;;
8737;SDS011;4405;49.272;8.590;2023-02-28T07:01:56;6.57;;;4.87;;
8737;SDS011;4405;49.272;8.590;2023-02-28T07:04:22;4.30;;;3.90;;
8737;SDS011;4405;49.272;8.590;2023-02-28T07:06:50;4.53;;;4.13;;
8737;SDS011;4405;49.272;8.590;2023-02-28T07:09:17;5.00;;;4.50;;
8737;SDS011;4405;49.272;8.590;2023-02-28T07:11:44;5.20;;;4.70;;
8737;SDS011;4405;49.272;8.590;2023-02-28T07:14:10;6.07;;;4.63;;
8737;SDS011;4405;49.272;8.590;2023-02-28T07:16:36;4.80;;;4.30;;
8737;SDS011;4405;49.272;8.590;2023-02-28T07:19:03;4.77;;;4.37;;
8737;SDS011;4405;49.272;8.590;2023-02-28T07:21:29;4.67;;;4.27;;
8737;SDS011;4405;49.272;8.590;2023-02-28T07:23:57;5.30;;;4.67;;
8737;SDS011;4405;49.272;8.590;2023-02-28T07:26:23;4.90;;;4.50;;
8737;SDS011;4405;49.272;8.590;2023-02-28T07:28:50;6.10;;;4.50;;
8737;SDS011;4405;49.272;8.590;2023-02-28T07:31:16;4.50;;;4.10;;
8737;SDS011;4405;49.272;8.590;2023-02-28T07:33:43;6.23;;;4.80;;
8737;SDS011;4405;49.272;8.590;2023-02-28T07:36:11;5.27;;;4.50;;
8737;SDS011;4405;49.272;8.590;2023-02-28T07:38:40;6.70;;;4.70;;
8737;SDS011;4405;49.272;8.590;2023-02-28T07:41:08;6.37;;;4.87;;
8737;SDS011;4405;49.272;8.590;2023-02-28T07:43:35;5.30;;;4.80;;
8737;SDS011;4405;49.272;8.590;2023-02-28T07:46:02;6.37;;;4.70;;
8737;SDS011;4405;49.272;8.590;2023-02-28T07:48:29;5.40;;;4.90;;
8737;SDS011;4405;49.272;8.590;2023-02-28T07:50:55;5.37;;;4.87;;
8737;SDS011;4405;49.272;8.590;2023-02-28T07:53:22;6.80;;;4.70;;
8737;SDS011;4405;49.272;8.590;2023-02-28T07:55:48;4.60;;;4.20;;
8737;SDS011;4405;49.272;8.590;2023-02-28T07:58:16;5.67;;;5.10;;
8737;SDS011;4405;49.272;8.590;2023-02-28T08:00:42;5.03;;;4.53;;
8737;SDS011;4405;49.272;8.590;2023-02-28T08:03:09;5.30;;;4.80;;
8737;SDS011;4405;49.272;8.590;2023-02-28T08:05:38;5.70;;;5.13;;
8737;SDS011;4405;49.272;8.590;2023-02-28T08:08:04;6.20;;;5.60;;
8737;SDS011;4405;49.272;8.590;2023-02-28T08:10:31;5.87;;;5.03;;
8737;SDS011;4405;49.272;8.590;2023-02-28T08:12:57;6.13;;;5.37;;
8737;SDS011;4405;49.272;8.590;2023-02-28T08:15:25;5.27;;;4.87;;
8737;SDS011;4405;49.272;8.590;2023-02-28T08:17:52;5.50;;;5.07;;
8737;SDS011;4405;49.272;8.590;2023-02-28T08:20:18;5.87;;;5.37;;
8737;SDS011;4405;49.272;8.590;2023-02-28T08:22:45;5.87;;;5.33;;
8737;SDS011;4405;49.272;8.590;2023-02-28T08:25:11;5.87;;;5.27;;
8737;SDS011;4405;49.272;8.590;2023-02-28T08:27:37;6.27;;;5.27;;
8737;SDS011;4405;49.272;8.590;2023-02-28T08:30:04;5.90;;;5.30;;
8737;SDS011;4405;49.272;8.590;2023-02-28T08:32:33;7.03;;;5.80;;
8737;SDS011;4405;49.272;8.590;2023-02-28T08:34:59;5.80;;;5.20;;
8737;SDS011;4405;49.272;8.590;2023-02-28T08:37:26;5.60;;;5.10;;
8737;SDS011;4405;49.272;8.590;2023-02-28T08:39:53;6.77;;;5.13;;
8737;SDS011;4405;49.272;8.590;2023-02-28T08:42:19;6.97;;;5.13;;
8737;SDS011;4405;49.272;8.590;2023-02-28T08:44:45;5.90;;;5.37;;
8737;SDS011;4405;49.272;8.590;2023-02-28T08:47:12;5.67;;;5.10;;
8737;SDS011;4405;49.272;8.590;2023-02-28T08:49:40;5.77;;;5.07;;
8737;SDS011;4405;49.272;8.590;2023-02-28T08:52:06;5.30;;;4.80;;
8737;SDS011;4405;49.272;8.590;2023-02-28T08:54:32;5.20;;;4.80;;
8737;SDS011;4405;49.272;8.590;2023-02-28T08:56:59;5.63;;;5.13;;
8737;SDS011;4405;49.272;8.590;2023-02-28T08:59:25;7.77;;;5.47;;
8737;SDS011;4405;49.272;8.590;2023-02-28T09:01:52;5.77;;;5.23;;
8737;SDS011;4405;49.272;8.590;2023-02-28T09:04:18;5.97;;;5.23;;
8737;SDS011;4405;49.272;8.590;2023-02-28T09:06:46;6.27;;;5.30;;
8737;SDS011;4405;49.272;8.590;2023-02-28T09:09:13;5.50;;;5.03;;
8737;SDS011;4405;49.272;8.590;2023-02-28T09:11:40;8.90;;;7.40;;
8737;SDS011;4405;49.272;8.590;2023-02-28T09:14:06;6.70;;;5.60;;
8737;SDS011;4405;49.272;8.590;2023-02-28T09:16:32;5.77;;;5.30;;
8737;SDS011;4405;49.272;8.590;2023-02-28T09:18:59;6.60;;;5.97;;
8737;SDS011;4405;49.272;8.590;2023-02-28T09:21:26;6.27;;;5.73;;
8737;SDS011;4405;49.272;8.590;2023-02-28T09:23:54;6.23;;;5.63;;
8737;SDS011;4405;49.272;8.590;2023-02-28T09:26:21;5.70;;;5.20;;
8737;SDS011;4405;49.272;8.590;2023-02-28T09:28:48;7.10;;;5.40;;
8737;SDS011;4405;49.272;8.590;2023-02-28T09:31:15;6.20;;;5.70;;
8737;SDS011;4405;49.272;8.590;2023-02-28T09:33:41;6.47;;;5.40;;
8737;SDS011;4405;49.272;8.590;2023-02-28T09:36:08;6.00;;;5.43;;
8737;SDS011;4405;49.272;8.590;2023-02-28T09:38:34;6.40;;;5.90;;
8737;SDS011;4405;49.272;8.590;2023-02-28T09:41:03;5.97;;;5.20;;
8737;SDS011;4405;49.272;8.590;2023-02-28T09:43:31;6.27;;;5.67;;
8737;SDS011;4405;49.272;8.590;2023-02-28T09:46:00;6.10;;;5.60;;
8737;SDS011;4405;49.272;8.590;2023-02-28T09:48:29;6.00;;;5.50;;
8737;SDS011;4405;49.272;8.590;2023-02-28T09:51:00;6.00;;;5.40;;
8737;SDS011;4405;49.272;8.590;2023-02-28T09:53:29;6.73;;;6.13;;
8737;SDS011;4405;49.272;8.590;2023-02-28T09:55:59;6.50;;;5.90;;
8737;SDS011;4405;49.272;8.590;2023-02-28T09:58:30;6.00;;;5.50;;
8737;SDS011;4405;49.272;8.590;2023-02-28T10:00:59;7.27;;;5.83;;
8737;SDS011;4405;49.272;8.590;2023-02-28T10:03:28;5.93;;;5.43;;
8737;SDS011;4405;49.272;8.590;2023-02-28T10:05:57;6.30;;;5.70;;
8737;SDS011;4405;49.272;8.590;2023-02-28T10:08:28;6.10;;;5.50;;
8737;SDS011;4405;49.272;8.590;2023-02-28T10:10:56;6.50;;;6.00;;
8737;SDS011;4405;49.272;8.590;2023-02-28T10:13:25;6.60;;;5.97;;
8737;SDS011;4405;49.272;8.590;2023-02-28T10:15:58;7.77;;;6.13;;
8737;SDS011;4405;49.272;8.590;2023-02-28T10:18:28;6.37;;;5.87;;
8737;SDS011;4405;49.272;8.590;2023-02-28T10:20:56;6.60;;;5.63;;
8737;SDS011;4405;49.272;8.590;2023-02-28T10:23:23;6.20;;;5.70;;
8737;SDS011;4405;49.272;8.590;2023-02-28T10:25:53;6.77;;;6.03;;
8737;SDS011;4405;49.272;8.590;2023-02-28T10:28:20;6.20;;;5.70;;
8737;SDS011;4405;49.272;8.590;2023-02-28T10:30:47;6.53;;;6.03;;
8737;SDS011;4405;49.272;8.590;2023-02-28T10:33:23;6.50;;;6.00;;
8737;SDS011;4405;49.272;8.590;2023-02-28T10:35:49;8.57;;;6.20;;
8737;SDS011;4405;49.272;8.590;2023-02-28T10:38:17;6.40;;;5.80;;
8737;SDS011;4405;49.272;8.590;2023-02-28T10:40:44;6.30;;;5.77;;
8737;SDS011;4405;49.272;8.590;2023-02-28T10:43:20;7.17;;;6.30;;
8737;SDS011;4405;49.272;8.590;2023-02-28T10:48:34;6.23;;;5.63;;
8737;SDS011;4405;49.272;8.590;2023-02-28T10:51:02;6.40;;;5.80;;
8737;SDS011;4405;49.272;8.590;2023-02-28T10:53:33;6.37;;;5.87;;
8737;SDS011;4405;49.272;8.590;2023-02-28T10:56:01;6.53;;;5.93;;
8737;SDS011;4405;49.272;8.590;2023-02-28T10:58:30;6.60;;;6.00;;
8737;SDS011;4405;49.272;8.590;2023-02-28T11:00:57;6.00;;;5.50;;
8737;SDS011;4405;49.272;8.590;2023-02-28T11:03:24;7.10;;;6.37;;
8737;SDS011;4405;49.272;8.590;2023-02-28T11:05:52;6.47;;;5.90;;
8737;SDS011;4405;49.272;8.590;2023-02-28T11:08:19;7.10;;;6.40;;
8737;SDS011;4405;49.272;8.590;2023-02-28T11:10:46;6.53;;;6.03;;
8737;SDS011;4405;49.272;8.590;2023-02-28T11:13:16;7.00;;;6.30;;
8737;SDS011;4405;49.272;8.590;2023-02-28T11:15:43;6.40;;;5.90;;
8737;SDS011;4405;49.272;8.590;2023-02-28T11:18:19;6.70;;;6.10;;
8737;SDS011;4405;49.272;8.590;2023-02-28T11:20:48;7.60;;;6.27;;
8737;SDS011;4405;49.272;8.590;2023-02-28T11:23:16;6.83;;;6.17;;
8737;SDS011;4405;49.272;8.590;2023-02-28T11:25:46;6.77;;;6.17;;
8737;SDS011;4405;49.272;8.590;2023-02-28T11:28:23;6.80;;;6.20;;
8737;SDS011;4405;49.272;8.590;2023-02-28T11:30:59;6.63;;;6.00;;
8737;SDS011;4405;49.272;8.590;2023-02-28T11:33:27;7.10;;;6.50;;
8737;SDS011;4405;49.272;8.590;2023-02-28T11:35:55;7.20;;;6.60;;
8737;SDS011;4405;49.272;8.590;2023-02-28T11:38:25;7.40;;;6.70;;
8737;SDS011;4405;49.272;8.590;2023-02-28T11:40:56;7.03;;;6.40;;
8737;SDS011;4405;49.272;8.590;2023-02-28T11:43:29;7.20;;;6.50;;
8737;SDS011;4405;49.272;8.590;2023-02-28T11:46:11;8.13;;;6.73;;
8737;SDS011;4405;49.272;8.590;2023-02-28T11:48:42;7.07;;;6.40;;
8737;SDS011;4405;49.272;8.590;2023-02-28T11:51:14;7.10;;;6.60;;
8737;SDS011;4405;49.272;8.590;2023-02-28T11:53:55;7.43;;;6.77;;
8737;SDS011;4405;49.272;8.590;2023-02-28T11:56:26;7.03;;;6.40;;
8737;SDS011;4405;49.272;8.590;2023-02-28T11:58:59;7.37;;;6.67;;
8737;SDS011;4405;49.272;8.590;2023-02-28T12:01:36;7.43;;;6.50;;
8737;SDS011;4405;49.272;8.590;2023-02-28T12:04:10;8.20;;;6.83;;
8737;SDS011;4405;49.272;8.590;2023-02-28T12:06:38;7.23;;;6.53;;
8737;SDS011;4405;49.272;8.590;2023-02-28T12:09:13;7.60;;;6.50;;
8737;SDS011;4405;49.272;8.590;2023-02-28T12:11:48;7.47;;;6.77;;
8737;SDS011;4405;49.272;8.590;2023-02-28T12:16:59;7.37;;;6.77;;
8737;SDS011;4405;49.272;8.590;2023-02-28T12:19:30;7.13;;;6.63;;
8737;SDS011;4405;49.272;8.590;2023-02-28T12:22:05;7.10;;;6.50;;
8737;SDS011;4405;49.272;8.590;2023-02-28T12:27:19;7.40;;;6.80;;
8737;SDS011;4405;49.272;8.590;2023-02-28T12:29:49;8.00;;;7.30;;
8737;SDS011;4405;49.272;8.590;2023-02-28T12:32:18;8.13;;;7.33;;
8737;SDS011;4405;49.272;8.590;2023-02-28T12:34:47;7.47;;;6.77;;
8737;SDS011;4405;49.272;8.590;2023-02-28T12:37:15;8.47;;;7.67;;
8737;SDS011;4405;49.272;8.590;2023-02-28T12:39:44;8.63;;;7.57;;
8737;SDS011;4405;49.272;8.590;2023-02-28T12:42:11;7.87;;;7.07;;
8737;SDS011;4405;49.272;8.590;2023-02-28T12:44:42;9.03;;;8.20;;
8737;SDS011;4405;49.272;8.590;2023-02-28T12:47:13;8.43;;;7.63;;
8737;SDS011;4405;49.272;8.590;2023-02-28T12:49:41;7.70;;;6.90;;
8737;SDS011;4405;49.272;8.590;2023-02-28T12:52:08;7.70;;;7.00;;
8737;SDS011;4405;49.272;8.590;2023-02-28T12:54:40;7.07;;;6.40;;
8737;SDS011;4405;49.272;8.590;2023-02-28T12:57:09;7.70;;;7.00;;
8737;SDS011;4405;49.272;8.590;2023-02-28T12:59:41;7.87;;;7.17;;
8737;SDS011;4405;49.272;8.590;2023-02-28T13:05:05;7.87;;;7.07;;
8737;SDS011;4405;49.272;8.590;2023-02-28T13:10:14;8.73;;;7.93;;
8737;SDS011;4405;49.272;8.590;2023-02-28T13:12:47;8.80;;;7.90;;
8737;SDS011;4405;49.272;8.590;2023-02-28T13:15:18;8.20;;;7.40;;
8737;SDS011;4405;49.272;8.590;2023-02-28T13:17:47;7.77;;;7.07;;
8737;SDS011;4405;49.272;8.590;2023-02-28T13:20:15;8.60;;;7.10;;
8737;SDS011;4405;49.272;8.590;2023-02-28T13:22:45;8.87;;;7.50;;
8737;SDS011;4405;49.272;8.590;2023-02-28T13:27:56;7.40;;;6.77;;
8737;SDS011;4405;49.272;8.590;2023-02-28T13:36:09;8.00;;;7.30;;
8737;SDS011;4405;49.272;8.590;2023-02-28T13:38:39;8.23;;;7.43;;
8737;SDS011;4405;49.272;8.590;2023-02-28T13:44:04;7.90;;;7.20;;
8737;SDS011;4405;49.272;8.590;2023-02-28T13:46:31;8.20;;;7.50;;
8737;SDS011;4405;49.272;8.590;2023-02-28T13:51:41;8.47;;;7.73;;
8737;SDS011;4405;49.272;8.590;2023-02-28T13:57:01;8.30;;;7.50;;
8737;SDS011;4405;49.272;8.590;2023-02-28T13:59:32;7.87;;;7.17;;
8737;SDS011;4405;49.272;8.590;2023-02-28T14:02:03;7.97;;;7.27;;
8737;SDS011;4405;49.272;8.590;2023-02-28T14:04:54;7.70;;;7.07;;
8737;SDS011;4405;49.272;8.590;2023-02-28T14:07:24;8.30;;;7.50;;
8737;SDS011;4405;49.272;8.590;2023-02-28T14:09:55;7.60;;;7.00;;
8737;SDS011;4405;49.272;8.590;2023-02-28T14:17:50;7.80;;;7.20;;
8737;SDS011;4405;49.272;8.590;2023-02-28T14:20:17;8.10;;;7.50;;
8737;SDS011;4405;49.272;8.590;2023-02-28T14:22:48;7.70;;;7.10;;
8737;SDS011;4405;49.272;8.590;2023-02-28T14:25:18;8.07;;;7.43;;
8737;SDS011;4405;49.272;8.590;2023-02-28T14:27:49;8.30;;;7.60;;
8737;SDS011;4405;49.272;8.590;2023-02-28T14:30:29;8.27;;;7.47;;
8737;SDS011;4405;49.272;8.590;2023-02-28T14:33:08;8.20;;;7.40;;
8737;SDS011;4405;49.272;8.590;2023-02-28T14:35:43;8.63;;;7.77;;
8737;SDS011;4405;49.272;8.590;2023-02-28T14:38:17;8.27;;;7.50;;
8737;SDS011;4405;49.272;8.590;2023-02-28T14:40:46;8.17;;;7.47;;
8737;SDS011;4405;49.272;8.590;2023-02-28T14:43:19;7.97;;;7.27;;
8737;SDS011;4405;49.272;8.590;2023-02-28T14:45:48;9.20;;;8.33;;
8737;SDS011;4405;49.272;8.590;2023-02-28T14:48:15;8.33;;;7.60;;
8737;SDS011;4405;49.272;8.590;2023-02-28T14:50:42;8.47;;;7.47;;
8737;SDS011;4405;49.272;8.590;2023-02-28T14:53:17;8.70;;;7.80;;
8737;SDS011;4405;49.272;8.590;2023-02-28T14:55:44;8.30;;;7.60;;
8737;SDS011;4405;49.272;8.590;2023-02-28T14:58:20;8.60;;;7.53;;
8737;SDS011;4405;49.272;8.590;2023-02-28T15:00:48;7.60;;;6.90;;
8737;SDS011;4405;49.272;8.590;2023-02-28T15:03:17;8.07;;;7.27;;
8737;SDS011;4405;49.272;8.590;2023-02-28T15:05:50;8.43;;;7.57;;
8737;SDS011;4405;49.272;8.590;2023-02-28T15:08:18;8.13;;;7.40;;
8737;SDS011;4405;49.272;8.590;2023-02-28T15:10:49;8.80;;;7.83;;
8737;SDS011;4405;49.272;8.590;2023-02-28T15:13:16;7.57;;;6.97;;
8737;SDS011;4405;49.272;8.590;2023-02-28T15:15:44;7.90;;;7.20;;
8737;SDS011;4405;49.272;8.590;2023-02-28T15:18:14;8.40;;;7.60;;
8737;SDS011;4405;49.272;8.590;2023-02-28T15:20:42;7.83;;;7.13;;
8737;SDS011;4405;49.272;8.590;2023-02-28T15:23:09;10.77;;;7.10;;
8737;SDS011;4405;49.272;8.590;2023-02-28T15:25:38;8.40;;;7.63;;
8737;SDS011;4405;49.272;8.590;2023-02-28T15:28:09;8.73;;;7.83;;
8737;SDS011;4405;49.272;8.590;2023-02-28T15:30:38;8.87;;;6.83;;
8737;SDS011;4405;49.272;8.590;2023-02-28T15:33:06;8.43;;;7.73;;
8737;SDS011;4405;49.272;8.590;2023-02-28T15:35:33;8.77;;;7.97;;
8737;SDS011;4405;49.272;8.590;2023-02-28T15:38:00;8.90;;;8.00;;
8737;SDS011;4405;49.272;8.590;2023-02-28T15:40:28;8.60;;;7.90;;
8737;SDS011;4405;49.272;8.590;2023-02-28T15:45:41;8.60;;;7.77;;
8737;SDS011;4405;49.272;8.590;2023-02-28T15:48:13;9.27;;;8.30;;
8737;SDS011;4405;49.272;8.590;2023-02-28T15:50:41;8.07;;;7.37;;
8737;SDS011;4405;49.272;8.590;2023-02-28T15:53:11;9.37;;;8.20;;
8737;SDS011;4405;49.272;8.590;2023-02-28T15:55:38;9.30;;;8.20;;
8737;SDS011;4405;49.272;8.590;2023-02-28T15:58:08;8.53;;;7.63;;
8737;SDS011;4405;49.272;8.590;2023-02-28T16:00:38;8.80;;;8.00;;
8737;SDS011;4405;49.272;8.590;2023-02-28T16:05:47;12.67;;;11.47;;
8737;SDS011;4405;49.272;8.590;2023-02-28T16:08:32;10.33;;;9.13;;
8737;SDS011;4405;49.272;8.590;2023-02-28T16:10:58;9.10;;;8.20;;